Time;durP1;ratioP1;P1;durP2;ratioP2;P2;SDS_P1;SDS_P2;PMS_P1;PMS_P2;Temp;Humidity;BMP_temperature;BMP_pressure;BME280_temperature;BME280_humidity;BME280_pressure;Samples;Min_cycle;Max_cycle;Signal;HPM_P1;HPM_P2
2023/07/17 00:01:22;;;;;;;4.00;3.43;;;21.30;99.90;;;;;;6269793;22;20470;-76
2023/07/17 00:04:05;;;;;;;4.47;3.57;;;21.30;99.90;;;;;;6269465;22;20467;-77
2023/07/17 00:06:54;;;;;;;3.53;3.23;;;21.30;99.90;;;;;;6269771;23;20412;-76
2023/07/17 00:09:43;;;;;;;4.70;3.80;;;21.20;99.90;;;;;;6267767;22;20443;-77
2023/07/17 00:12:28;;;;;;;5.40;3.73;;;21.10;99.90;;;;;;6269447;23;20435;-77
2023/07/17 00:15:26;;;;;;;4.70;3.90;;;21.10;99.90;;;;;;6270212;23;20428;-76
2023/07/17 00:21:02;;;;;;;4.67;4.27;;;20.70;99.90;;;;;;6263159;22;20389;-77
2023/07/17 00:23:44;;;;;;;9.43;4.27;;;21.00;99.90;;;;;;6257533;22;20912;-77
2023/07/17 00:26:30;;;;;;;4.57;4.17;;;21.00;99.90;;;;;;6250913;22;20435;-77
2023/07/17 00:29:30;;;;;;;4.70;3.90;;;21.00;99.90;;;;;;6248780;23;20487;-77
2023/07/17 00:32:20;;;;;;;4.43;3.30;;;21.00;99.90;;;;;;6274027;22;21222;-76
2023/07/17 00:39:24;;;;;;;4.23;3.63;;;21.00;99.90;;;;;;6098326;23;20408;-77
2023/07/17 01:13:16;;;;;;;5.23;2.70;;;20.80;99.90;;;;;;6070065;23;20405;-78
2023/07/17 01:18:48;;;;;;;4.10;2.90;;;20.70;99.90;;;;;;6234701;23;20413;-78
2023/07/17 01:21:30;;;;;;;4.37;3.13;;;20.70;99.90;;;;;;6234871;23;20422;-78
2023/07/17 02:15:27;;;;;;;4.40;2.77;;;20.90;99.90;;;;;;5830005;24;20431;-76
2023/07/17 02:57:27;;;;;;;7.17;3.70;;;20.80;99.90;;;;;;5817310;24;20419;-77
2023/07/17 03:03:21;;;;;;;3.50;3.20;;;20.70;99.90;;;;;;6141097;23;20415;-77
2023/07/17 03:09:31;;;;;;;4.83;3.30;;;20.70;99.90;;;;;;6186658;23;20430;-77
2023/07/17 03:12:22;;;;;;;5.00;3.10;;;20.80;99.90;;;;;;6187968;23;20387;-76
2023/07/17 03:15:13;;;;;;;5.30;3.70;;;20.70;99.90;;;;;;6187906;23;20936;-76
2023/07/17 03:20:50;;;;;;;3.93;3.07;;;20.70;99.90;;;;;;6186881;23;20414;-76
2023/07/17 03:23:29;;;;;;;3.30;2.90;;;20.70;99.90;;;;;;6184222;23;20414;-77
2023/07/17 03:35:01;;;;;;;3.03;2.83;;;20.70;99.90;;;;;;6121790;23;20428;-77
2023/07/17 03:37:51;;;;;;;3.33;3.03;;;20.70;99.90;;;;;;6174914;23;20755;-76
2023/07/17 03:41:05;;;;;;;4.80;3.10;;;20.70;99.90;;;;;;6168821;23;20923;-77
2023/07/17 03:47:11;;;;;;;;;;;;;;;;;;;;;
2023/07/17 03:49:49;;;;;;;8.57;3.73;;;20.60;99.90;;;;;;6185227;23;20411;-77
2023/07/17 03:52:29;;;;;;;4.40;3.90;;;20.60;99.90;;;;;;6186201;23;20418;-77
2023/07/17 03:55:08;;;;;;;3.07;2.87;;;20.60;99.90;;;;;;6185253;23;20426;-77
2023/07/17 03:57:44;;;;;;;5.47;3.90;;;20.60;99.90;;;;;;6185906;23;20418;-77
2023/07/17 04:00:25;;;;;;;3.27;3.00;;;20.60;99.90;;;;;;6186359;23;20419;-76
2023/07/17 04:03:09;;;;;;;4.00;3.03;;;20.60;99.90;;;;;;6185731;23;20398;-78
2023/07/17 04:49:55;;;;;;;;;;;;;;;;;;;;;
2023/07/17 04:59:16;;;;;;;10.50;4.10;;;20.60;99.90;;;;;;6082866;23;20398;-78
2023/07/17 05:02:00;;;;;;;5.00;4.13;;;20.70;99.90;;;;;;6199148;23;20410;-77
2023/07/17 05:04:29;;;;;;;4.73;3.40;;;20.70;99.90;;;;;;6204064;23;20431;-78
2023/07/17 05:07:02;;;;;;;4.30;3.63;;;20.60;99.90;;;;;;6202712;23;20758;-78
2023/07/17 05:09:36;;;;;;;4.63;3.23;;;20.80;99.90;;;;;;6203983;23;20429;-80
2023/07/17 05:12:15;;;;;;;6.20;3.53;;;20.80;99.90;;;;;;6205570;23;20391;-78
2023/07/17 05:14:56;;;;;;;8.43;4.27;;;20.80;99.90;;;;;;6205123;23;20422;-78
2023/07/17 05:17:35;;;;;;;6.50;3.43;;;20.80;99.90;;;;;;6208190;23;20485;-77
2023/07/17 05:20:11;;;;;;;6.23;3.27;;;20.80;99.90;;;;;;6209621;23;20407;-78
2023/07/17 05:22:49;;;;;;;5.60;3.70;;;20.80;99.90;;;;;;6208128;23;20410;-79
2023/07/17 05:25:50;;;;;;;6.40;3.60;;;20.90;99.90;;;;;;6205740;23;20441;-78
2023/07/17 05:28:40;;;;;;;5.87;4.90;;;20.90;99.90;;;;;;6199626;23;20450;-78
2023/07/17 05:31:29;;;;;;;;;;;;;;;;;;;;;
2023/07/17 05:34:18;;;;;;;5.27;3.90;;;21.10;99.90;;;;;;6187613;23;20419;-78
2023/07/17 05:40:37;;;;;;;6.47;3.60;;;21.10;99.90;;;;;;6010570;23;20413;-78
2023/07/17 05:47:01;;;;;;;3.90;3.50;;;21.30;99.90;;;;;;6149714;23;20391;-78
2023/07/17 05:49:35;;;;;;;4.30;3.57;;;21.30;99.90;;;;;;6187862;23;20439;-79
2023/07/17 05:52:18;;;;;;;4.80;4.40;;;21.50;99.90;;;;;;6194684;23;20412;-78
2023/07/17 05:55:07;;;;;;;3.50;3.20;;;21.50;99.90;;;;;;6199926;23;20434;-79
2023/07/17 05:57:48;;;;;;;10.37;3.70;;;21.80;99.90;;;;;;6198098;23;20502;-77
2023/07/17 06:00:35;;;;;;;4.33;3.60;;;21.70;99.90;;;;;;6198750;23;20388;-78
2023/07/17 06:03:12;;;;;;;5.67;3.63;;;21.80;99.90;;;;;;6196446;23;20422;-78
2023/07/17 06:06:00;;;;;;;5.57;3.47;;;21.80;99.90;;;;;;6198569;23;20431;-78
2023/07/17 06:08:39;;;;;;;6.63;4.10;;;21.80;99.90;;;;;;6199361;23;20443;-79
2023/07/17 06:11:19;;;;;;;5.80;4.30;;;21.80;99.90;;;;;;6198650;23;20935;-77
2023/07/17 06:13:58;;;;;;;3.97;3.67;;;21.90;99.90;;;;;;6197915;23;20427;-77
2023/07/17 06:16:53;;;;;;;5.00;3.83;;;21.90;99.90;;;;;;6196161;23;20415;-78
2023/07/17 06:22:23;;;;;;;3.70;3.40;;;22.10;99.90;;;;;;6178787;23;20399;-77
2023/07/17 06:25:10;;;;;;;4.50;3.73;;;22.20;99.90;;;;;;6192873;23;20423;-77
2023/07/17 06:27:54;;;;;;;3.97;3.20;;;22.40;99.90;;;;;;6191819;23;20407;-78
2023/07/17 06:30:29;;;;;;;5.70;3.60;;;22.50;99.90;;;;;;6194922;23;20435;-77
2023/07/17 06:33:12;;;;;;;6.17;3.80;;;22.60;99.90;;;;;;6193789;23;20744;-78
2023/07/17 06:36:22;;;;;;;4.60;3.77;;;22.70;99.90;;;;;;6191370;23;20431;-78
2023/07/17 06:39:08;;;;;;;5.70;3.40;;;22.80;99.90;;;;;;6189201;23;20435;-76
2023/07/17 06:41:52;;;;;;;4.73;3.47;;;22.80;99.90;;;;;;6192001;23;20423;-79
2023/07/17 06:44:28;;;;;;;5.30;3.90;;;22.90;99.90;;;;;;6190155;23;20466;-78
2023/07/17 06:47:12;;;;;;;6.60;3.73;;;23.00;99.90;;;;;;6193977;23;20411;-80
2023/07/17 06:49:51;;;;;;;3.73;3.40;;;22.80;99.90;;;;;;6195343;23;20435;-79
2023/07/17 06:52:33;;;;;;;5.23;3.60;;;22.80;99.90;;;;;;6189087;23;20410;-78
2023/07/17 06:55:05;;;;;;;6.40;3.70;;;23.00;99.90;;;;;;6187991;23;20489;-77
2023/07/17 06:57:46;;;;;;;5.20;4.07;;;23.20;99.90;;;;;;6187802;23;20471;-79
2023/07/17 07:00:24;;;;;;;5.43;3.40;;;23.20;99.90;;;;;;6187031;23;20411;-78
2023/07/17 07:03:03;;;;;;;4.40;3.90;;;23.10;99.90;;;;;;6187677;23;20505;-77
2023/07/17 07:05:41;;;;;;;5.10;4.10;;;23.20;99.90;;;;;;6191374;23;20414;-78
2023/07/17 07:08:24;;;;;;;5.13;3.90;;;23.40;99.90;;;;;;6196656;23;20415;-81
2023/07/17 07:11:00;;;;;;;4.57;4.10;;;23.30;99.90;;;;;;6191170;23;20421;-77
2023/07/17 07:16:35;;;;;;;5.80;5.30;;;23.40;99.90;;;;;;6162722;23;20401;-77
2023/07/17 07:19:20;;;;;;;5.40;4.90;;;23.50;99.90;;;;;;6161498;23;20408;-80
2023/07/17 07:22:07;;;;;;;4.67;4.27;;;23.60;99.90;;;;;;6161200;23;20412;-79
2023/07/17 07:24:47;;;;;;;5.20;4.20;;;23.50;99.90;;;;;;6170796;23;20428;-79
2023/07/17 07:27:22;;;;;;;6.40;4.50;;;23.50;99.90;;;;;;6170805;23;20450;-79
2023/07/17 07:30:08;;;;;;;7.40;5.00;;;23.80;99.90;;;;;;6167561;23;20546;-79
2023/07/17 07:32:45;;;;;;;6.03;4.70;;;24.00;99.90;;;;;;6167901;23;20438;-78
2023/07/17 07:35:17;;;;;;;6.27;4.30;;;24.10;99.90;;;;;;6166457;23;20890;-79
2023/07/17 07:37:57;;;;;;;6.50;4.40;;;24.30;99.90;;;;;;6167031;23;20897;-80
2023/07/17 07:40:49;;;;;;;5.53;4.67;;;24.40;99.90;;;;;;6166541;23;20384;-79
2023/07/17 07:43:40;;;;;;;6.43;4.73;;;24.30;99.90;;;;;;6167656;23;20443;-77
2023/07/17 07:49:11;;;;;;;7.00;5.03;;;24.30;99.90;;;;;;6156171;23;20537;-78
2023/07/17 07:51:58;;;;;;;5.70;5.17;;;24.10;99.90;;;;;;6173375;23;20416;-79
2023/07/17 07:54:35;;;;;;;5.90;4.93;;;24.20;99.90;;;;;;6167023;23;20467;-80
2023/07/17 07:57:25;;;;;;;6.10;5.17;;;24.40;99.90;;;;;;6164737;23;20771;-80
2023/07/17 08:00:07;;;;;;;6.93;5.80;;;24.60;99.90;;;;;;6163637;23;20428;-79
2023/07/17 08:02:49;;;;;;;7.73;4.97;;;24.50;99.90;;;;;;6162266;23;20449;-78
2023/07/17 08:05:21;;;;;;;6.00;4.67;;;24.30;99.90;;;;;;6159325;23;20518;-77
2023/07/17 08:07:57;;;;;;;6.70;5.27;;;24.20;99.90;;;;;;6161051;23;20412;-77
2023/07/17 08:10:30;;;;;;;5.70;5.17;;;24.60;99.90;;;;;;6165723;23;20436;-77
2023/07/17 08:13:10;;;;;;;8.47;5.50;;;24.80;99.90;;;;;;6162120;23;20416;-78
2023/07/17 08:15:52;;;;;;;5.77;4.87;;;24.90;99.90;;;;;;6164263;23;20431;-77
2023/07/17 08:18:28;;;;;;;7.40;4.60;;;24.80;99.90;;;;;;6170019;23;20499;-81
2023/07/17 08:21:03;;;;;;;6.53;4.73;;;24.80;99.90;;;;;;6173646;23;20415;-80
2023/07/17 08:26:46;;;;;;;6.37;4.77;;;25.10;99.90;;;;;;6173627;23;20423;-78
2023/07/17 08:29:20;;;;;;;7.80;5.23;;;25.10;99.90;;;;;;6169724;23;20444;-78
2023/07/17 08:31:51;;;;;;;5.83;4.17;;;24.90;99.90;;;;;;6167706;23;20404;-78
2023/07/17 08:34:23;;;;;;;5.60;4.27;;;24.90;99.90;;;;;;6162120;23;20432;-78
2023/07/17 08:37:05;;;;;;;5.03;4.50;;;24.70;99.90;;;;;;6165080;23;20483;-78
2023/07/17 08:39:41;;;;;;;6.63;4.90;;;25.10;99.90;;;;;;6162915;23;20576;-76
2023/07/17 08:42:23;;;;;;;5.27;4.40;;;25.30;99.90;;;;;;6165733;23;20824;-80
2023/07/17 08:45:02;;;;;;;5.93;4.40;;;25.40;99.90;;;;;;6162893;23;20519;-78
2023/07/17 08:47:45;;;;;;;5.40;4.50;;;25.30;99.10;;;;;;6162957;23;20412;-79
2023/07/17 08:53:19;;;;;;;4.57;4.17;;;26.00;98.50;;;;;;6162670;23;21109;-80
2023/07/17 08:55:58;;;;;;;5.73;4.63;;;25.80;97.30;;;;;;6165233;23;20463;-78
2023/07/17 08:58:52;;;;;;;6.60;5.07;;;25.50;97.70;;;;;;6165219;23;20474;-79
2023/07/17 09:01:26;;;;;;;6.13;4.80;;;25.40;98.10;;;;;;6166325;23;20404;-78
2023/07/17 09:21:28;;;;;;;6.43;5.27;;;26.30;97.20;;;;;;5945914;24;20484;-78
2023/07/17 09:28:40;;;;;;;7.10;4.40;;;25.70;98.00;;;;;;5857216;24;21252;-78
2023/07/17 09:50:29;;;;;;;5.67;5.07;;;26.40;96.60;;;;;;5780303;24;20903;-78
2023/07/17 09:53:02;;;;;;;5.50;4.70;;;26.50;96.80;;;;;;5987223;23;20852;-78
2023/07/17 09:55:37;;;;;;;6.30;5.10;;;26.80;96.40;;;;;;6035913;23;20435;-79
2023/07/17 09:58:28;;;;;;;5.60;5.10;;;26.80;95.50;;;;;;6130494;23;20438;-78
2023/07/17 10:04:18;;;;;;;5.33;4.33;;;26.50;95.10;;;;;;6192846;23;20422;-79
2023/07/17 10:06:58;;;;;;;5.60;5.10;;;26.40;95.40;;;;;;6194730;23;20411;-79
2023/07/17 10:09:37;;;;;;;5.73;5.23;;;26.60;95.70;;;;;;6196710;23;20407;-79
2023/07/17 10:12:27;;;;;;;5.63;4.87;;;26.90;95.40;;;;;;6195053;23;20411;-79
2023/07/17 10:15:07;;;;;;;6.37;5.20;;;27.10;95.30;;;;;;6193249;23;20671;-79
2023/07/17 10:18:25;;;;;;;5.83;5.00;;;26.90;94.80;;;;;;6189386;23;20506;-77
2023/07/17 10:21:00;;;;;;;5.70;5.20;;;27.00;94.60;;;;;;6187891;23;20411;-82
2023/07/17 10:23:40;;;;;;;5.50;4.80;;;27.20;94.40;;;;;;6190359;23;20552;-79
2023/07/17 10:26:41;;;;;;;5.73;5.20;;;27.20;94.30;;;;;;6191302;23;20394;-78
2023/07/17 10:29:19;;;;;;;5.53;5.03;;;27.10;93.80;;;;;;6191561;23;20755;-80
2023/07/17 10:32:30;;;;;;;5.53;4.50;;;27.20;93.50;;;;;;6188511;23;20399;-81
2023/07/17 10:35:49;;;;;;;7.90;5.30;;;27.20;93.20;;;;;;6187448;23;20432;-80
2023/07/17 10:38:31;;;;;;;5.90;5.37;;;27.10;93.30;;;;;;6099517;23;20411;-79
2023/07/17 10:41:37;;;;;;;5.73;5.23;;;27.10;93.00;;;;;;6187568;23;20515;-78
2023/07/17 10:44:17;;;;;;;5.80;5.20;;;27.20;93.20;;;;;;6187280;23;20427;-77
2023/07/17 10:49:38;;;;;;;5.07;4.67;;;27.50;92.10;;;;;;6183552;23;20965;-79
2023/07/17 10:52:24;;;;;;;7.70;7.00;;;27.80;92.20;;;;;;6189707;23;20419;-79
2023/07/17 10:55:06;;;;;;;4.83;4.37;;;27.80;91.50;;;;;;6190258;23;20431;-79
2023/07/17 10:57:49;;;;;;;5.37;4.87;;;27.60;91.40;;;;;;6189200;23;20506;-79
2023/07/17 11:01:26;;;;;;;5.23;4.73;;;27.90;91.40;;;;;;6187084;23;20422;-79
2023/07/17 11:03:57;;;;;;;5.07;4.67;;;27.10;90.50;;;;;;6170484;23;20439;-79
2023/07/17 11:09:28;;;;;;;5.00;4.60;;;27.40;90.60;;;;;;6186160;23;20407;-80
2023/07/17 11:15:20;;;;;;;5.40;5.00;;;27.10;90.80;;;;;;6175489;23;20411;-79
2023/07/17 11:18:06;;;;;;;6.47;4.80;;;27.20;90.90;;;;;;6189194;23;20434;-80
2023/07/17 11:20:54;;;;;;;5.70;5.20;;;27.30;90.90;;;;;;6191192;23;20403;-80
2023/07/17 11:23:56;;;;;;;5.70;5.10;;;27.20;91.60;;;;;;6189561;23;20417;-80
2023/07/17 11:29:44;;;;;;;4.83;4.40;;;27.80;91.10;;;;;;6180112;23;20400;-80
2023/07/17 11:32:24;;;;;;;4.80;4.40;;;27.80;90.30;;;;;;6191855;23;20403;-79
2023/07/17 11:35:19;;;;;;;5.10;4.63;;;27.20;90.20;;;;;;6190057;23;20435;-81
2023/07/17 11:38:18;;;;;;;5.53;5.13;;;27.40;90.60;;;;;;6189769;23;20415;-80
2023/07/17 11:40:59;;;;;;;4.70;4.20;;;27.90;89.80;;;;;;6189820;23;20491;-81
2023/07/17 11:43:39;;;;;;;5.30;4.60;;;28.60;87.70;;;;;;6190252;23;20438;-80
2023/07/17 11:46:16;;;;;;;4.40;3.93;;;28.90;88.40;;;;;;6193719;23;20423;-80
2023/07/17 11:48:56;;;;;;;5.30;4.80;;;29.20;86.60;;;;;;6191200;23;20457;-78
2023/07/17 11:51:51;;;;;;;5.90;4.87;;;29.60;86.20;;;;;;6194956;23;20507;-79
2023/07/17 11:54:56;;;;;;;4.73;4.33;;;29.50;86.10;;;;;;6197857;23;20438;-79
2023/07/17 12:00:55;;;;;;;5.03;4.50;;;29.90;84.20;;;;;;6172811;23;20441;-79
2023/07/17 12:03:26;;;;;;;5.30;4.80;;;29.40;83.60;;;;;;6196093;23;20400;-81
2023/07/17 12:09:04;;;;;;;6.10;5.50;;;29.60;85.20;;;;;;6193279;23;20435;-78
2023/07/17 12:11:40;;;;;;;6.30;4.60;;;29.90;82.80;;;;;;6182758;23;20435;-79
2023/07/17 12:14:47;;;;;;;6.50;5.10;;;29.80;82.30;;;;;;6198605;23;20450;-77
2023/07/17 12:20:24;;;;;;;5.20;4.70;;;29.50;83.50;;;;;;6187978;23;20454;-78
2023/07/17 12:23:34;;;;;;;;;;;;;;;;;;;;;
2023/07/17 12:29:21;;;;;;;4.60;4.10;;;29.40;83.50;;;;;;6201455;23;20483;-78
2023/07/17 12:35:20;;;;;;;5.00;4.50;;;29.50;82.60;;;;;;6194934;23;20422;-78
2023/07/17 12:38:04;;;;;;;5.40;4.80;;;29.10;83.70;;;;;;6140404;23;20722;-78
2023/07/17 12:40:57;;;;;;;5.23;4.73;;;29.20;84.00;;;;;;6205488;23;20984;-78
2023/07/17 12:43:44;;;;;;;5.00;4.50;;;29.00;83.00;;;;;;6202586;23;20403;-78
2023/07/17 12:46:29;;;;;;;7.60;5.27;;;29.10;82.90;;;;;;6202634;23;20411;-78
2023/07/17 12:49:07;;;;;;;5.07;4.67;;;29.00;83.00;;;;;;6203528;23;20415;-79
2023/07/17 12:51:53;;;;;;;8.00;4.90;;;28.70;82.50;;;;;;6203626;23;20441;-78
2023/07/17 13:04:06;;;;;;;15.73;11.90;;;29.40;83.00;;;;;;6202314;23;20429;-79
2023/07/17 13:07:03;;;;;;;9.13;5.53;;;29.40;84.90;;;;;;6202548;23;20419;-77
2023/07/17 13:09:50;;;;;;;5.20;4.70;;;29.80;84.30;;;;;;6201438;23;20442;-77
2023/07/17 13:12:32;;;;;;;5.27;4.77;;;30.30;82.40;;;;;;6198504;23;20483;-80
2023/07/17 13:15:24;;;;;;;5.37;4.80;;;30.00;83.80;;;;;;6197217;23;20481;-80
2023/07/17 13:18:21;;;;;;;4.83;4.43;;;29.30;84.30;;;;;;6197317;23;20447;-81
2023/07/17 13:21:07;;;;;;;8.93;5.40;;;29.30;85.80;;;;;;6194419;23;20408;-78
2023/07/17 13:23:38;;;;;;;5.10;4.30;;;29.40;85.80;;;;;;6190418;23;20422;-77
2023/07/17 13:26:11;;;;;;;9.00;6.20;;;29.30;86.20;;;;;;6189618;23;20519;-79
2023/07/17 13:28:40;;;;;;;5.50;5.00;;;28.70;86.90;;;;;;6189569;23;20733;-78
2023/07/17 13:31:09;;;;;;;4.93;4.43;;;29.00;86.60;;;;;;6189931;23;20439;-80
2023/07/17 13:33:44;;;;;;;4.90;4.37;;;28.90;86.80;;;;;;6190502;23;20515;-80
2023/07/17 13:36:14;;;;;;;6.43;4.80;;;29.50;86.20;;;;;;6189395;23;20506;-78
2023/07/17 13:38:46;;;;;;;5.87;5.23;;;29.60;86.30;;;;;;6190314;23;20412;-80
2023/07/17 13:41:36;;;;;;;4.90;4.40;;;29.70;86.30;;;;;;6188129;23;20411;-78
2023/07/17 13:44:09;;;;;;;4.97;4.50;;;29.40;85.30;;;;;;6186928;23;20439;-79
2023/07/17 13:46:52;;;;;;;4.30;3.93;;;29.40;86.90;;;;;;6186542;23;20415;-78
2023/07/17 13:49:34;;;;;;;6.37;5.00;;;29.20;85.70;;;;;;6186911;23;20422;-80
2023/07/17 13:52:07;;;;;;;4.50;4.20;;;29.10;87.40;;;;;;6187382;23;20439;-77
2023/07/17 13:54:44;;;;;;;6.90;5.30;;;29.20;87.70;;;;;;6186676;23;20430;-79
2023/07/17 13:57:16;;;;;;;5.23;4.70;;;29.40;86.90;;;;;;6187738;23;20438;-79
2023/07/17 13:59:50;;;;;;;5.17;4.67;;;29.30;86.50;;;;;;6188136;23;20494;-79
2023/07/17 14:02:27;;;;;;;4.73;4.40;;;29.30;87.60;;;;;;6188113;23;20435;-79
2023/07/17 14:05:05;;;;;;;5.07;4.57;;;29.20;87.70;;;;;;6188248;23;20434;-79
2023/07/17 14:07:44;;;;;;;6.90;4.67;;;28.50;87.60;;;;;;6188112;23;20915;-78
2023/07/17 14:10:27;;;;;;;5.03;4.53;;;28.40;88.90;;;;;;6191437;23;20411;-78
2023/07/17 14:13:09;;;;;;;5.43;4.83;;;28.50;89.10;;;;;;6193425;23;20411;-80
2023/07/17 14:15:39;;;;;;;5.17;4.67;;;27.70;90.10;;;;;;6195008;23;20458;-79
2023/07/17 14:18:11;;;;;;;4.83;4.20;;;27.60;90.80;;;;;;6193252;23;20410;-78
2023/07/17 14:20:45;;;;;;;4.63;4.23;;;27.90;90.60;;;;;;6194080;23;20407;-79
2023/07/17 14:23:24;;;;;;;5.40;4.53;;;27.90;90.30;;;;;;6193145;23;20407;-80
2023/07/17 14:25:53;;;;;;;5.33;4.53;;;27.70;90.10;;;;;;6191522;23;20407;-79
2023/07/17 14:28:30;;;;;;;4.87;4.47;;;27.50;90.20;;;;;;6191473;23;20411;-80
2023/07/17 14:31:12;;;;;;;5.93;4.80;;;27.50;90.60;;;;;;6186688;23;20443;-80
2023/07/17 14:33:45;;;;;;;5.63;4.93;;;27.70;90.20;;;;;;6185575;23;20440;-78
2023/07/17 14:36:25;;;;;;;8.60;5.00;;;27.70;90.10;;;;;;6185403;23;20485;-78
2023/07/17 14:39:08;;;;;;;4.57;4.17;;;28.00;90.00;;;;;;6187261;23;20434;-78
2023/07/17 14:41:57;;;;;;;5.10;4.60;;;28.00;89.40;;;;;;6187878;23;20824;-79
2023/07/17 14:45:01;;;;;;;5.63;5.03;;;28.30;89.60;;;;;;6188296;23;20438;-78
2023/07/17 14:47:43;;;;;;;5.53;4.93;;;28.50;89.00;;;;;;6166918;23;20498;-78
2023/07/17 14:50:29;;;;;;;8.40;4.63;;;28.40;89.20;;;;;;6186957;23;20442;-80
2023/07/17 14:53:03;;;;;;;5.80;5.00;;;28.30;88.90;;;;;;6188460;23;20418;-80
2023/07/17 14:55:56;;;;;;;5.60;4.90;;;28.20;89.20;;;;;;6187259;23;20513;-79
2023/07/17 14:58:23;;;;;;;5.03;4.47;;;27.80;89.20;;;;;;6187210;23;20426;-81
2023/07/17 15:01:12;;;;;;;6.50;5.50;;;28.00;90.30;;;;;;6188242;23;20403;-79
2023/07/17 15:03:50;;;;;;;10.70;4.90;;;28.00;90.10;;;;;;6186423;23;20545;-79
2023/07/17 15:06:33;;;;;;;5.93;4.57;;;28.10;89.60;;;;;;6187247;23;20423;-78
2023/07/17 15:09:09;;;;;;;6.50;4.30;;;28.10;89.90;;;;;;6187997;23;20411;-78
2023/07/17 15:11:44;;;;;;;8.30;4.60;;;28.70;89.30;;;;;;6188996;23;20511;-79
2023/07/17 15:27:52;;;;;;;7.47;4.80;;;27.80;90.50;;;;;;5806452;24;20420;-77
2023/07/17 15:30:39;;;;;;;5.13;4.67;;;27.80;90.50;;;;;;5891048;24;20419;-80
2023/07/17 15:33:14;;;;;;;5.20;4.70;;;28.00;90.30;;;;;;6066862;23;20483;-79
2023/07/17 15:35:48;;;;;;;6.13;5.50;;;27.90;90.50;;;;;;6156429;23;20479;-80
2023/07/17 15:38:20;;;;;;;6.07;4.80;;;28.10;90.50;;;;;;6156971;23;20431;-80
2023/07/17 15:41:13;;;;;;;4.60;4.20;;;28.10;89.60;;;;;;6156787;23;20439;-78
2023/07/17 15:43:50;;;;;;;5.70;5.20;;;28.40;88.80;;;;;;6156779;23;20455;-79
2023/07/17 15:46:35;;;;;;;4.60;4.30;;;28.20;89.30;;;;;;6155416;23;20432;-78
2023/07/17 15:49:21;;;;;;;6.50;4.73;;;28.70;88.40;;;;;;6155711;23;20451;-78
2023/07/17 15:51:56;;;;;;;5.93;4.57;;;28.60;89.10;;;;;;6156879;23;20439;-79
2023/07/17 15:58:11;;;;;;;5.13;4.63;;;29.20;88.30;;;;;;6185505;23;20450;-78
2023/07/17 16:00:55;;;;;;;5.80;4.53;;;29.10;87.10;;;;;;6191766;23;20445;-79
2023/07/17 16:03:31;;;;;;;5.07;4.50;;;28.90;87.80;;;;;;6189896;23;20437;-81
2023/07/17 16:06:06;;;;;;;4.83;4.37;;;28.80;87.90;;;;;;6193096;23;20438;-79
2023/07/17 16:08:36;;;;;;;5.40;4.90;;;28.60;88.00;;;;;;6195283;23;20414;-77
2023/07/17 16:11:22;;;;;;;5.00;4.60;;;28.50;88.60;;;;;;6196196;23;20458;-79
2023/07/17 16:13:59;;;;;;;5.60;5.00;;;28.70;88.10;;;;;;6195294;23;20430;-78
2023/07/17 16:16:36;;;;;;;5.10;4.50;;;28.90;88.30;;;;;;6195294;23;20494;-79
2023/07/17 16:19:10;;;;;;;4.33;4.03;;;29.20;87.90;;;;;;6194176;23;20411;-78
2023/07/17 16:21:56;;;;;;;4.93;4.50;;;29.40;85.80;;;;;;6195542;23;20487;-79
2023/07/17 16:24:25;;;;;;;4.97;4.57;;;29.80;86.10;;;;;;6194980;23;20437;-79
2023/07/17 16:27:00;;;;;;;4.43;3.97;;;28.80;86.90;;;;;;6197210;23;20450;-81
2023/07/17 16:29:36;;;;;;;5.27;4.33;;;28.70;88.00;;;;;;6201719;23;20414;-79
2023/07/17 16:32:20;;;;;;;5.77;4.47;;;28.10;87.90;;;;;;6202306;23;20461;-76
2023/07/17 16:34:59;;;;;;;4.97;4.57;;;28.50;86.30;;;;;;6200334;23;20442;-80
2023/07/17 16:37:58;;;;;;;;;;;;;;;;;;;;;
2023/07/17 16:43:40;;;;;;;6.23;4.70;;;28.60;86.90;;;;;;6194833;23;20390;-79
2023/07/17 16:46:27;;;;;;;4.93;4.50;;;28.50;87.70;;;;;;6177900;23;20494;-78
2023/07/17 16:49:09;;;;;;;4.83;4.43;;;28.70;87.00;;;;;;6187610;23;20725;-80
2023/07/17 16:51:52;;;;;;;7.70;4.53;;;28.10;87.10;;;;;;6188621;23;20796;-78
2023/07/17 16:54:31;;;;;;;7.77;4.50;;;27.90;88.40;;;;;;6188923;23;20427;-78
2023/07/17 16:57:12;;;;;;;7.07;4.80;;;27.90;88.30;;;;;;6189242;23;20415;-79
2023/07/17 16:59:52;;;;;;;4.87;4.47;;;27.90;88.90;;;;;;6191258;23;20399;-81
2023/07/17 17:02:38;;;;;;;6.60;4.27;;;27.80;88.60;;;;;;6195439;23;20447;-81
2023/07/17 17:05:22;;;;;;;4.80;4.40;;;28.40;88.20;;;;;;6195463;23;20442;-79
2023/07/17 17:07:55;;;;;;;5.57;4.67;;;27.70;88.00;;;;;;6192732;23;20415;-80
2023/07/17 17:10:38;;;;;;;5.93;4.57;;;27.40;88.10;;;;;;6193560;23;20419;-80
2023/07/17 17:29:34;;;;;;;4.50;3.70;;;27.30;87.30;;;;;;5935560;24;20430;-78
2023/07/17 17:32:33;;;;;;;3.90;3.60;;;27.40;87.00;;;;;;6035807;23;20447;-80
2023/07/17 17:35:24;;;;;;;4.43;4.03;;;27.60;85.60;;;;;;6048722;23;20440;-80
2023/07/17 17:38:08;;;;;;;4.60;4.20;;;27.80;84.20;;;;;;6168760;23;20930;-79
2023/07/17 17:43:46;;;;;;;4.60;3.67;;;27.70;83.60;;;;;;6169314;23;20412;-79
2023/07/17 17:46:30;;;;;;;5.00;3.60;;;28.30;83.50;;;;;;6170089;23;20408;-78
2023/07/17 17:49:18;;;;;;;3.40;3.10;;;28.30;81.10;;;;;;6174122;23;20431;-77
2023/07/17 17:55:17;;;;;;;4.17;3.70;;;26.60;84.10;;;;;;6164715;23;20472;-78
2023/07/17 17:58:03;;;;;;;3.80;3.50;;;27.10;84.80;;;;;;6171525;23;20404;-79
2023/07/17 18:07:03;;;;;;;5.57;3.60;;;27.20;83.10;;;;;;6162076;23;20480;-78
2023/07/17 18:09:44;;;;;;;4.60;3.37;;;26.70;83.10;;;;;;6169829;23;20431;-77
2023/07/17 18:15:50;;;;;;;5.97;3.40;;;26.60;82.80;;;;;;6106523;23;20470;-79
2023/07/17 18:18:27;;;;;;;5.07;3.57;;;26.60;82.80;;;;;;6143701;23;20435;-79
2023/07/17 18:23:58;;;;;;;5.30;3.00;;;26.40;83.10;;;;;;6150941;23;20427;-78
2023/07/17 18:26:41;;;;;;;3.90;3.00;;;26.00;83.50;;;;;;6159999;23;20419;-79
2023/07/17 18:29:13;;;;;;;3.20;2.90;;;25.80;84.20;;;;;;6159991;23;20495;-78
2023/07/17 18:31:52;;;;;;;3.73;2.80;;;25.80;84.90;;;;;;6160807;23;20444;-80
2023/07/17 18:34:34;;;;;;;4.87;2.60;;;26.00;83.80;;;;;;6157928;23;20436;-78
2023/07/17 18:37:20;;;;;;;3.97;2.70;;;25.60;83.40;;;;;;6160957;23;20412;-77
2023/07/17 18:46:32;;;;;;;3.33;2.70;;;25.50;83.50;;;;;;6158020;23;20407;-78
2023/07/17 18:49:13;;;;;;;4.27;3.27;;;25.50;83.80;;;;;;6163166;23;20480;-81
2023/07/17 18:52:03;;;;;;;4.17;2.80;;;25.30;83.10;;;;;;6162075;23;20434;-79
2023/07/17 18:54:37;;;;;;;4.63;2.53;;;25.20;84.70;;;;;;6160513;23;20504;-78
2023/07/17 18:57:12;;;;;;;2.90;2.60;;;25.20;84.10;;;;;;6160668;23;20381;-78
2023/07/17 18:59:52;;;;;;;2.90;2.57;;;25.20;84.10;;;;;;6159189;23;20407;-78
2023/07/17 19:02:38;;;;;;;5.47;2.70;;;25.20;84.00;;;;;;6163303;23;20519;-78
2023/07/17 19:08:03;;;;;;;3.47;3.17;;;25.20;84.80;;;;;;6116171;23;20431;-77
2023/07/17 19:10:51;;;;;;;7.00;2.90;;;25.20;85.20;;;;;;6167514;23;20774;-78
2023/07/17 19:13:25;;;;;;;2.83;2.50;;;25.00;85.60;;;;;;6164681;23;20458;-79
2023/07/17 19:15:58;;;;;;;3.73;2.40;;;25.00;85.80;;;;;;6165699;23;20415;-79
2023/07/17 19:18:28;;;;;;;2.60;2.40;;;24.90;85.30;;;;;;6163964;23;20412;-79
2023/07/17 19:21:01;;;;;;;6.47;3.00;;;24.70;85.60;;;;;;6164958;23;20416;-78
2023/07/17 19:23:36;;;;;;;7.73;4.10;;;24.70;86.30;;;;;;6165429;23;20428;-79
2023/07/17 19:26:04;;;;;;;5.17;3.00;;;24.60;87.00;;;;;;6167538;23;20419;-77
2023/07/17 19:28:37;;;;;;;5.17;2.87;;;24.50;87.50;;;;;;6168571;23;20420;-76
2023/07/17 19:31:40;;;;;;;4.70;2.70;;;24.30;87.50;;;;;;6166248;23;20416;-79
2023/07/17 19:34:15;;;;;;;2.90;2.70;;;24.30;88.20;;;;;;6163629;23;20432;-80
2023/07/17 19:36:46;;;;;;;4.40;2.67;;;24.20;88.20;;;;;;6165892;23;20407;-81
2023/07/17 19:39:18;;;;;;;2.90;2.70;;;24.00;88.10;;;;;;6166735;23;20435;-78
2023/07/17 19:41:49;;;;;;;3.70;2.40;;;24.00;88.00;;;;;;6165875;23;20404;-78
2023/07/17 19:44:25;;;;;;;2.40;2.30;;;23.90;88.30;;;;;;6164837;23;20427;-79
2023/07/17 19:47:00;;;;;;;2.50;2.10;;;23.90;88.50;;;;;;6164427;23;20414;-78
2023/07/17 19:49:37;;;;;;;2.50;2.30;;;23.80;88.50;;;;;;6164349;23;20498;-78
2023/07/17 19:52:13;;;;;;;4.30;2.70;;;23.80;88.30;;;;;;6163596;23;20980;-79
2023/07/17 19:54:52;;;;;;;3.37;2.70;;;23.60;88.80;;;;;;6160548;23;20456;-78
2023/07/17 19:57:34;;;;;;;2.70;2.40;;;23.60;88.80;;;;;;6160963;23;20412;-78
2023/07/17 20:00:16;;;;;;;3.63;2.40;;;23.50;89.00;;;;;;6161240;23;20450;-78
2023/07/17 20:02:58;;;;;;;3.30;2.47;;;23.40;89.20;;;;;;6160428;23;20408;-79
2023/07/17 20:05:36;;;;;;;3.67;2.40;;;23.40;89.50;;;;;;6159143;23;20431;-81
2023/07/17 20:21:29;;;;;;;4.13;2.67;;;23.10;90.40;;;;;;5825927;24;20451;-78
2023/07/17 20:27:41;;;;;;;;;;;;;;;;;;;;;
2023/07/17 20:33:40;;;;;;;4.10;3.10;;;22.90;90.70;;;;;;6048654;23;20472;-78
2023/07/17 20:36:28;;;;;;;3.37;2.23;;;22.90;90.90;;;;;;6073471;23;20413;-80
2023/07/17 20:39:38;;;;;;;2.33;2.13;;;22.80;90.60;;;;;;6178477;23;20443;-76
2023/07/17 20:42:51;;;;;;;3.70;2.37;;;22.70;90.60;;;;;;6174721;23;20439;-77